Time;durP1;ratioP1;P1;durP2;ratioP2;P2;SDS_P1;SDS_P2;PMS_P1;PMS_P2;Temp;Humidity;BMP_temperature;BMP_pressure;BME280_temperature;BME280_humidity;BME280_pressure;Samples;Min_cycle;Max_cycle;Signal;HPM_P1;HPM_P2
2022/12/30 00:00:19;;;;;;;17.50;3.92;;;7.50;99.90;;;;;;5005214;28;20113;-69
2022/12/30 00:02:45;;;;;;;22.25;4.40;;;7.40;99.90;;;;;;5008507;28;20088;-69
2022/12/30 00:05:11;;;;;;;13.82;4.22;;;7.30;99.90;;;;;;5000123;28;20084;-70
2022/12/30 00:07:36;;;;;;;20.77;4.38;;;7.30;99.90;;;;;;4999179;28;20497;-70
2022/12/30 00:10:03;;;;;;;12.23;3.80;;;7.30;99.90;;;;;;4987026;28;20030;-69
2022/12/30 00:34:55;;;;;;;15.52;4.40;;;7.20;99.90;;;;;;5000922;28;20045;-69
2022/12/30 00:37:21;;;;;;;18.52;4.30;;;7.10;99.90;;;;;;5003701;28;20499;-69
2022/12/30 00:39:47;;;;;;;20.83;4.25;;;7.00;99.90;;;;;;5011726;28;20121;-69
2022/12/30 00:44:56;;;;;;;17.15;3.50;;;6.90;99.90;;;;;;4998626;28;20128;-69
2022/12/30 00:47:22;;;;;;;18.95;3.90;;;6.90;99.90;;;;;;5031190;28;20124;-69
2022/12/30 00:58:00;;;;;;;22.90;3.70;;;6.90;99.90;;;;;;5017913;28;20107;-69
2022/12/30 01:00:25;;;;;;;19.58;3.97;;;6.90;99.90;;;;;;5021132;28;20072;-69
2022/12/30 01:02:51;;;;;;;20.13;3.97;;;6.80;99.90;;;;;;5030534;28;20037;-69
2022/12/30 01:05:17;;;;;;;16.38;3.25;;;6.80;99.90;;;;;;5031453;28;20112;-69
2022/12/30 01:07:42;;;;;;;17.10;3.40;;;6.80;99.90;;;;;;5021886;28;20411;-68
2022/12/30 01:10:11;;;;;;;20.38;3.70;;;6.70;99.90;;;;;;5027424;28;20033;-69
2022/12/30 01:12:36;;;;;;;19.65;2.88;;;6.70;99.90;;;;;;5039870;28;20032;-69
2022/12/30 01:15:02;;;;;;;20.45;3.95;;;6.70;99.90;;;;;;5015507;28;20049;-70
2022/12/30 01:17:31;;;;;;;19.13;3.22;;;6.70;99.90;;;;;;5034186;28;20467;-69
2022/12/30 01:19:56;;;;;;;11.82;3.15;;;6.60;99.90;;;;;;5033060;28;20037;-70
2022/12/30 01:22:22;;;;;;;20.58;3.28;;;6.60;99.90;;;;;;5031822;28;20083;-69
2022/12/30 01:24:48;;;;;;;17.15;3.40;;;6.50;99.90;;;;;;5023271;28;20433;-69
2022/12/30 01:27:14;;;;;;;17.77;3.50;;;6.50;99.90;;;;;;5022027;28;20103;-69
2022/12/30 01:29:41;;;;;;;17.25;3.67;;;6.40;99.90;;;;;;5033845;28;20033;-69
2022/12/30 01:32:16;;;;;;;13.05;3.80;;;6.40;99.90;;;;;;5026483;28;20469;-69
2022/12/30 01:34:42;;;;;;;16.75;3.45;;;6.30;99.90;;;;;;5010799;28;20049;-70
2022/12/30 01:37:08;;;;;;;16.60;3.17;;;6.30;99.90;;;;;;5019264;28;20060;-69
2022/12/30 01:39:34;;;;;;;22.13;4.70;;;6.30;99.90;;;;;;5014148;28;20099;-70
2022/12/30 01:42:00;;;;;;;18.77;3.58;;;6.30;99.90;;;;;;5033932;28;20037;-69
2022/12/30 01:44:44;;;;;;;15.85;3.60;;;6.40;99.90;;;;;;5030483;28;20101;-69
2022/12/30 01:47:14;;;;;;;15.45;3.72;;;6.40;99.90;;;;;;5007818;28;20041;-68
2022/12/30 01:49:45;;;;;;;13.77;4.65;;;6.40;99.90;;;;;;5061271;22;20037;-71
2022/12/30 01:52:12;;;;;;;12.90;4.15;;;6.30;99.90;;;;;;5034994;28;20045;-69
2022/12/30 01:54:38;;;;;;;16.13;3.90;;;6.40;99.90;;;;;;5049606;28;20087;-69
2022/12/30 01:57:06;;;;;;;17.50;4.10;;;6.40;99.90;;;;;;5051805;28;20048;-71
2022/12/30 01:59:32;;;;;;;17.48;3.50;;;6.40;99.90;;;;;;5036143;28;20067;-68
2022/12/30 02:01:58;;;;;;;19.95;3.95;;;6.40;99.90;;;;;;5041281;28;20407;-68
2022/12/30 02:04:26;;;;;;;23.95;4.53;;;6.30;99.90;;;;;;5034442;28;20049;-68
2022/12/30 02:06:58;;;;;;;16.35;4.07;;;6.30;99.90;;;;;;5013749;28;20069;-66
2022/12/30 02:09:25;;;;;;;20.73;4.13;;;6.30;99.90;;;;;;5026709;28;20040;-68
2022/12/30 02:11:51;;;;;;;20.88;3.90;;;6.30;99.90;;;;;;5037961;28;20054;-68
2022/12/30 02:14:17;;;;;;;25.27;4.78;;;6.30;99.90;;;;;;5033191;28;20053;-69
2022/12/30 02:17:01;;;;;;;18.08;4.15;;;6.30;99.90;;;;;;5048672;28;20041;-68
2022/12/30 02:20:12;;;;;;;19.73;4.38;;;6.30;99.90;;;;;;5029986;28;20057;-67
2022/12/30 02:22:44;;;;;;;18.50;4.72;;;6.30;99.90;;;;;;5025614;28;20068;-67
2022/12/30 02:25:28;;;;;;;16.50;4.18;;;6.30;99.90;;;;;;5032412;28;20044;-68
2022/12/30 02:28:21;;;;;;;17.27;4.72;;;6.20;99.90;;;;;;5049272;28;20033;-68
2022/12/30 02:31:32;;;;;;;22.10;4.50;;;6.20;99.90;;;;;;5028083;28;20060;-65
2022/12/30 02:34:36;;;;;;;15.82;4.80;;;6.10;99.90;;;;;;5012445;28;20421;-68
2022/12/30 02:37:22;;;;;;;16.30;4.53;;;6.10;99.90;;;;;;5037601;28;20450;-69
2022/12/30 02:40:05;;;;;;;17.17;6.00;;;6.10;99.90;;;;;;5030929;28;20848;-68
2022/12/30 02:45:33;;;;;;;15.32;4.38;;;6.00;99.90;;;;;;5051621;28;20118;-67
2022/12/30 02:48:14;;;;;;;16.95;4.78;;;6.00;99.90;;;;;;5032330;28;20071;-68
2022/12/30 02:53:30;;;;;;;19.27;4.65;;;6.00;99.90;;;;;;5047397;28;20518;-67
2022/12/30 02:55:56;;;;;;;13.43;4.35;;;6.00;99.90;;;;;;5044736;28;20151;-67
2022/12/30 02:58:24;;;;;;;15.35;4.95;;;6.00;99.90;;;;;;5039547;28;20104;-68
2022/12/30 03:03:59;;;;;;;18.40;4.75;;;5.90;99.90;;;;;;5049014;28;20118;-67
2022/12/30 03:06:50;;;;;;;13.90;4.47;;;5.90;99.90;;;;;;5034180;28;20032;-68
2022/12/30 03:12:48;;;;;;;18.35;4.53;;;5.80;99.90;;;;;;5027517;28;20071;-68
2022/12/30 03:15:22;;;;;;;16.98;4.13;;;5.80;99.90;;;;;;5035923;28;20510;-68
2022/12/30 03:17:49;;;;;;;16.92;4.57;;;5.70;99.90;;;;;;5035048;28;20159;-68
2022/12/30 03:20:17;;;;;;;21.50;4.28;;;5.70;99.90;;;;;;5031349;28;20500;-66
2022/12/30 03:28:18;;;;;;;18.83;4.45;;;5.60;99.90;;;;;;5030543;28;20059;-69
2022/12/30 03:30:50;;;;;;;18.60;4.43;;;5.60;99.90;;;;;;5035786;28;20045;-68
2022/12/30 03:33:16;;;;;;;20.05;4.00;;;5.50;99.90;;;;;;5051185;28;20040;-67
2022/12/30 03:35:53;;;;;;;12.45;3.42;;;5.50;99.90;;;;;;5033775;28;20045;-67
2022/12/30 03:38:23;;;;;;;18.13;4.63;;;5.50;99.90;;;;;;5030375;28;20475;-67
2022/12/30 03:40:51;;;;;;;16.08;3.55;;;5.50;99.90;;;;;;5027923;28;20087;-69
2022/12/30 03:43:17;;;;;;;10.30;3.38;;;5.50;99.90;;;;;;5051296;28;20037;-68
2022/12/30 03:45:43;;;;;;;12.02;3.65;;;5.50;99.90;;;;;;5037206;28;20076;-68
2022/12/30 03:48:08;;;;;;;11.23;3.50;;;5.50;99.90;;;;;;5028174;28;20083;-68
2022/12/30 03:50:34;;;;;;;16.08;3.80;;;5.50;99.90;;;;;;5041366;28;20045;-68
2022/12/30 03:52:59;;;;;;;12.23;3.30;;;5.50;99.90;;;;;;5049546;28;20061;-68
2022/12/30 03:55:25;;;;;;;12.88;3.67;;;5.50;99.90;;;;;;5045261;28;20045;-68
2022/12/30 03:57:50;;;;;;;15.50;3.35;;;5.50;99.90;;;;;;5041744;28;20543;-68
2022/12/30 04:00:16;;;;;;;18.70;3.63;;;5.40;99.90;;;;;;5040734;28;20094;-67
2022/12/30 04:02:42;;;;;;;14.45;4.10;;;5.30;99.90;;;;;;5036550;28;20069;-67
2022/12/30 04:05:09;;;;;;;14.00;3.17;;;5.20;99.90;;;;;;5049351;28;20112;-68
2022/12/30 04:07:35;;;;;;;15.43;3.60;;;5.20;99.90;;;;;;5054765;28;20045;-67
2022/12/30 04:10:02;;;;;;;12.85;3.65;;;5.20;99.90;;;;;;5051946;28;20060;-67
2022/12/30 04:12:28;;;;;;;13.30;3.72;;;5.20;99.90;;;;;;5029701;28;20056;-67
2022/12/30 04:14:53;;;;;;;13.32;3.88;;;5.20;99.90;;;;;;5041364;28;20033;-68
2022/12/30 04:17:19;;;;;;;14.57;3.78;;;5.20;99.90;;;;;;5045696;28;20398;-68
2022/12/30 04:19:44;;;;;;;14.05;4.30;;;5.20;99.90;;;;;;5033599;28;20037;-68
2022/12/30 04:22:10;;;;;;;15.80;3.55;;;5.20;99.90;;;;;;5044639;28;20041;-68
2022/12/30 04:24:35;;;;;;;12.35;3.55;;;5.10;99.90;;;;;;5051523;28;20438;-67
2022/12/30 04:27:01;;;;;;;14.75;3.75;;;5.10;99.90;;;;;;5054398;28;20029;-68
2022/12/30 04:29:26;;;;;;;10.80;3.75;;;5.10;99.90;;;;;;5042516;28;20068;-68
2022/12/30 04:31:52;;;;;;;14.30;4.00;;;5.20;99.90;;;;;;5039485;28;20037;-68
2022/12/30 04:34:18;;;;;;;12.55;4.07;;;5.10;99.90;;;;;;5028019;28;20095;-68
2022/12/30 04:36:43;;;;;;;14.73;3.70;;;5.10;99.90;;;;;;5020105;28;20044;-68
2022/12/30 04:39:09;;;;;;;12.82;3.45;;;5.10;99.90;;;;;;5038556;28;20234;-68
2022/12/30 04:41:35;;;;;;;10.43;3.17;;;5.00;99.90;;;;;;5036027;28;20517;-67
2022/12/30 04:44:02;;;;;;;10.00;3.35;;;5.00;99.90;;;;;;5030433;28;20037;-68
2022/12/30 04:46:28;;;;;;;11.35;3.20;;;4.90;99.90;;;;;;5035295;28;20048;-68
2022/12/30 04:48:54;;;;;;;15.75;4.47;;;5.00;99.90;;;;;;5039985;28;20036;-68
2022/12/30 04:51:20;;;;;;;13.70;3.50;;;4.90;99.90;;;;;;5046416;28;20032;-68
2022/12/30 04:53:45;;;;;;;13.75;3.72;;;5.00;99.90;;;;;;5021873;28;20575;-67
2022/12/30 04:56:12;;;;;;;15.23;4.32;;;5.10;99.90;;;;;;5050602;28;20044;-68
2022/12/30 04:58:38;;;;;;;17.02;3.78;;;5.10;99.90;;;;;;5050834;28;20043;-68
2022/12/30 05:01:04;;;;;;;14.25;3.88;;;5.20;99.90;;;;;;5039723;28;20032;-69
2022/12/30 05:03:30;;;;;;;11.50;3.42;;;5.20;99.90;;;;;;5041261;28;20080;-66
2022/12/30 05:05:56;;;;;;;13.52;3.65;;;5.20;99.90;;;;;;5041037;28;20458;-68
2022/12/30 05:08:22;;;;;;;17.35;3.78;;;5.20;99.90;;;;;;5025625;28;20121;-68
2022/12/30 05:10:47;;;;;;;14.52;3.47;;;5.20;99.90;;;;;;5044002;28;20503;-68
2022/12/30 05:13:13;;;;;;;14.25;3.88;;;5.20;99.90;;;;;;5038727;28;20059;-67
2022/12/30 05:15:39;;;;;;;12.70;3.65;;;5.20;99.90;;;;;;5051016;28;20394;-68
2022/12/30 05:18:05;;;;;;;13.95;3.42;;;5.20;99.90;;;;;;5037745;28;20049;-67
2022/12/30 05:20:30;;;;;;;16.35;3.88;;;5.10;99.90;;;;;;5024883;28;20033;-67
2022/12/30 05:22:56;;;;;;;17.95;3.95;;;5.10;99.90;;;;;;5040685;28;20086;-68
2022/12/30 05:28:05;;;;;;;10.57;3.10;;;5.00;99.90;;;;;;5024924;28;20044;-67
2022/12/30 05:30:31;;;;;;;12.90;3.75;;;4.90;99.90;;;;;;5044929;28;20045;-67
2022/12/30 05:32:56;;;;;;;11.88;3.67;;;4.90;99.90;;;;;;5050308;28;20072;-67
2022/12/30 05:35:22;;;;;;;13.02;3.80;;;4.90;99.90;;;;;;5032744;28;20639;-68
2022/12/30 05:37:48;;;;;;;10.05;3.20;;;4.90;99.90;;;;;;5033037;28;20043;-68
2022/12/30 05:40:14;;;;;;;16.48;3.30;;;4.90;99.90;;;;;;5050038;28;20091;-68
2022/12/30 05:42:39;;;;;;;17.73;3.53;;;4.90;99.90;;;;;;5027098;28;20047;-68
2022/12/30 05:45:06;;;;;;;13.27;3.42;;;4.80;99.90;;;;;;5049933;28;20112;-68
2022/12/30 05:47:33;;;;;;;13.93;3.67;;;4.80;99.90;;;;;;5043566;28;20128;-67
2022/12/30 05:49:59;;;;;;;14.35;3.65;;;4.80;99.90;;;;;;5050095;28;20139;-67
2022/12/30 05:52:24;;;;;;;13.88;3.78;;;4.80;99.90;;;;;;5046447;28;20116;-68
2022/12/30 05:54:50;;;;;;;14.45;3.78;;;4.80;99.90;;;;;;5035243;28;20395;-68
2022/12/30 05:57:16;;;;;;;15.75;3.45;;;4.90;99.90;;;;;;5050072;28;20094;-68
2022/12/30 05:59:41;;;;;;;11.57;3.53;;;4.90;99.90;;;;;;5029063;28;20469;-68
2022/12/30 06:02:07;;;;;;;17.05;3.42;;;4.80;99.90;;;;;;5033995;28;20073;-67
2022/12/30 06:04:33;;;;;;;16.40;3.55;;;4.80;99.90;;;;;;5039309;28;20391;-67
2022/12/30 06:06:58;;;;;;;18.05;3.88;;;4.80;99.90;;;;;;5033866;28;20487;-68
2022/12/30 06:09:24;;;;;;;10.48;3.30;;;4.80;99.90;;;;;;5042044;28;20069;-70
2022/12/30 06:11:50;;;;;;;13.00;3.47;;;4.70;99.90;;;;;;5045507;28;20128;-67
2022/12/30 06:14:17;;;;;;;13.30;2.90;;;4.70;99.90;;;;;;5045549;28;20128;-68
2022/12/30 06:16:43;;;;;;;11.15;3.40;;;4.70;99.90;;;;;;5032498;28;20048;-68
2022/12/30 06:19:08;;;;;;;16.02;3.92;;;4.70;99.90;;;;;;5053450;28;20044;-70
2022/12/30 06:21:34;;;;;;;15.20;3.63;;;4.70;99.90;;;;;;5048652;28;20040;-67
2022/12/30 06:24:00;;;;;;;17.92;3.38;;;4.70;99.90;;;;;;5053897;28;20120;-67
2022/12/30 06:26:26;;;;;;;15.73;3.30;;;4.70;99.90;;;;;;5031175;28;20402;-67
2022/12/30 06:28:51;;;;;;;13.05;3.58;;;4.60;99.90;;;;;;5034203;28;20037;-70
2022/12/30 06:31:17;;;;;;;13.75;3.78;;;4.70;99.90;;;;;;5050202;28;20048;-71
2022/12/30 06:33:43;;;;;;;22.75;3.70;;;4.70;99.90;;;;;;5028939;28;20403;-67
2022/12/30 06:36:09;;;;;;;16.60;3.60;;;4.70;99.90;;;;;;5043047;28;20049;-68
2022/12/30 06:38:35;;;;;;;16.35;3.42;;;4.70;99.90;;;;;;5064135;28;20045;-67
2022/12/30 06:41:00;;;;;;;16.70;4.43;;;4.70;99.90;;;;;;5032680;28;20127;-67
2022/12/30 06:43:26;;;;;;;17.25;3.50;;;4.60;99.90;;;;;;5039055;28;20049;-67
2022/12/30 06:45:52;;;;;;;13.55;3.00;;;4.60;99.90;;;;;;5051017;28;20041;-68
2022/12/30 06:48:17;;;;;;;15.65;4.03;;;4.70;99.90;;;;;;5044104;28;20120;-68
2022/12/30 06:50:43;;;;;;;12.30;3.63;;;4.70;99.90;;;;;;5046820;28;20411;-67
2022/12/30 06:53:08;;;;;;;11.98;3.33;;;4.70;99.90;;;;;;5033585;28;20044;-67
2022/12/30 06:55:34;;;;;;;17.25;3.30;;;4.70;99.90;;;;;;5034075;28;20068;-67
2022/12/30 06:58:02;;;;;;;14.82;3.70;;;4.70;99.90;;;;;;5030111;28;20067;-67
2022/12/30 07:00:28;;;;;;;14.57;3.33;;;4.70;99.90;;;;;;5033535;28;20499;-68
2022/12/30 07:02:53;;;;;;;10.75;3.40;;;4.70;99.90;;;;;;5050919;28;20098;-68
2022/12/30 07:05:19;;;;;;;15.45;3.17;;;4.70;99.90;;;;;;5045087;28;20159;-67
2022/12/30 07:07:45;;;;;;;11.88;3.25;;;4.70;99.90;;;;;;5032810;28;20484;-67
2022/12/30 07:10:10;;;;;;;16.10;3.88;;;4.70;99.90;;;;;;5033046;28;20045;-68
2022/12/30 07:12:36;;;;;;;10.43;3.30;;;4.70;99.90;;;;;;5050460;28;20033;-68
2022/12/30 07:15:01;;;;;;;14.90;3.65;;;4.70;99.90;;;;;;5028788;28;20496;-68
2022/12/30 07:17:27;;;;;;;21.63;4.00;;;4.70;99.90;;;;;;5048549;28;20037;-68
2022/12/30 07:19:53;;;;;;;17.38;3.20;;;4.80;99.90;;;;;;5032811;28;20044;-68
2022/12/30 07:22:18;;;;;;;15.02;3.30;;;4.70;99.90;;;;;;5029291;28;20039;-69
2022/12/30 07:24:44;;;;;;;15.00;3.00;;;4.70;99.90;;;;;;5051497;28;20405;-69
2022/12/30 07:27:13;;;;;;;12.68;3.35;;;4.70;99.90;;;;;;5044570;28;20041;-69
2022/12/30 07:29:39;;;;;;;16.83;3.70;;;4.80;99.90;;;;;;5052355;28;20064;-68
2022/12/30 07:32:09;;;;;;;11.77;3.35;;;4.80;99.90;;;;;;5045898;28;20069;-69
2022/12/30 07:34:36;;;;;;;15.18;3.20;;;4.80;99.90;;;;;;5044760;28;20040;-68
2022/12/30 07:37:03;;;;;;;15.95;3.17;;;4.80;99.90;;;;;;5052585;28;20511;-68
2022/12/30 07:39:30;;;;;;;17.48;3.38;;;4.80;99.90;;;;;;5024333;28;20103;-69
2022/12/30 07:41:55;;;;;;;18.50;3.30;;;4.80;99.90;;;;;;5032688;28;20446;-70
2022/12/30 07:44:21;;;;;;;16.15;3.22;;;4.80;99.90;;;;;;5039047;28;20069;-70
2022/12/30 07:46:47;;;;;;;19.45;4.30;;;4.90;99.90;;;;;;5032004;28;20041;-69
2022/12/30 07:49:12;;;;;;;14.68;3.50;;;4.80;99.90;;;;;;5061228;22;20039;-68
2022/12/30 07:51:38;;;;;;;11.38;3.53;;;4.90;99.90;;;;;;5039776;28;20045;-68
2022/12/30 07:54:04;;;;;;;12.07;3.33;;;4.90;99.90;;;;;;5032216;28;20041;-70
2022/12/30 07:56:30;;;;;;;17.58;3.63;;;4.90;99.90;;;;;;5006597;28;20050;-66
2022/12/30 07:58:56;;;;;;;16.15;3.67;;;4.90;99.90;;;;;;5013169;28;20111;-67
2022/12/30 08:01:21;;;;;;;17.38;3.50;;;4.90;99.90;;;;;;5010354;28;20044;-67
2022/12/30 08:03:47;;;;;;;15.05;4.55;;;4.90;99.90;;;;;;5011803;28;20068;-67
2022/12/30 08:06:15;;;;;;;20.40;3.58;;;5.00;99.90;;;;;;5005049;28;20042;-73
2022/12/30 08:08:41;;;;;;;17.50;4.00;;;5.00;99.90;;;;;;4993625;28;20088;-66
2022/12/30 08:11:08;;;;;;;22.05;4.50;;;5.00;99.90;;;;;;5003460;28;20495;-66
2022/12/30 08:13:36;;;;;;;15.85;3.67;;;5.10;99.90;;;;;;5001502;28;20042;-66
2022/12/30 08:16:07;;;;;;;10.45;3.05;;;5.10;99.90;;;;;;5001334;28;20484;-66
2022/12/30 08:18:33;;;;;;;12.95;4.35;;;5.10;99.90;;;;;;5010809;28;20037;-65
2022/12/30 08:21:00;;;;;;;14.60;4.05;;;5.20;99.90;;;;;;4999720;28;20042;-65
2022/12/30 08:23:27;;;;;;;11.63;3.25;;;5.20;99.90;;;;;;5013237;28;20063;-66
2022/12/30 08:25:53;;;;;;;17.25;3.83;;;5.20;99.90;;;;;;5000210;28;20077;-66
2022/12/30 08:28:18;;;;;;;13.15;4.22;;;5.20;99.90;;;;;;4996590;28;20073;-65
2022/12/30 08:30:44;;;;;;;15.65;3.95;;;5.20;99.90;;;;;;5001239;28;20512;-65
2022/12/30 08:33:10;;;;;;;10.32;3.42;;;5.30;99.90;;;;;;5001162;28;20124;-64
2022/12/30 08:35:35;;;;;;;11.10;3.65;;;5.30;99.90;;;;;;5008409;28;20048;-67
2022/12/30 08:38:01;;;;;;;18.83;4.30;;;5.40;99.90;;;;;;5009110;28;20484;-69
2022/12/30 08:40:26;;;;;;;16.13;3.88;;;5.50;99.90;;;;;;5013768;28;20046;-69
2022/12/30 08:42:52;;;;;;;10.68;3.40;;;5.50;99.90;;;;;;4988689;28;20050;-68
2022/12/30 08:45:18;;;;;;;13.82;4.25;;;5.60;99.90;;;;;;4988024;28;20218;-67
2022/12/30 08:47:43;;;;;;;7.35;2.95;;;5.60;99.90;;;;;;4994894;28;20041;-66
2022/12/30 08:50:09;;;;;;;15.68;3.63;;;5.60;99.90;;;;;;5011232;28;20160;-65
2022/12/30 08:52:36;;;;;;;12.70;3.17;;;5.70;99.90;;;;;;5003956;28;20048;-67
2022/12/30 08:55:02;;;;;;;10.90;3.40;;;5.70;99.90;;;;;;5009085;28;20040;-66
2022/12/30 08:57:27;;;;;;;12.80;3.00;;;5.80;99.90;;;;;;5011065;28;20034;-65
2022/12/30 08:59:53;;;;;;;15.65;3.55;;;5.80;99.90;;;;;;4990334;28;20069;-67
2022/12/30 09:02:18;;;;;;;11.77;3.17;;;5.80;99.90;;;;;;5005542;28;20479;-64
2022/12/30 09:04:44;;;;;;;14.98;3.03;;;5.90;99.90;;;;;;5005716;28;20034;-64
2022/12/30 09:07:09;;;;;;;13.00;3.25;;;5.90;99.90;;;;;;5010454;28;20037;-65
2022/12/30 09:09:36;;;;;;;14.32;3.33;;;5.90;99.90;;;;;;5026790;28;20040;-65
2022/12/30 09:12:02;;;;;;;11.88;3.00;;;6.00;99.90;;;;;;5022779;28;20484;-66
2022/12/30 09:14:28;;;;;;;12.85;3.08;;;6.00;99.90;;;;;;5006647;28;20077;-66
2022/12/30 09:16:53;;;;;;;10.20;2.70;;;6.10;99.90;;;;;;5013487;28;20472;-67
2022/12/30 09:19:19;;;;;;;18.95;2.85;;;6.10;99.90;;;;;;4994308;28;20045;-65
2022/12/30 09:21:45;;;;;;;14.27;3.40;;;6.10;99.90;;;;;;5008290;28;20041;-64
2022/12/30 09:24:10;;;;;;;9.55;2.95;;;6.20;99.90;;;;;;5009627;28;20030;-65
2022/12/30 09:26:36;;;;;;;12.90;3.97;;;6.20;99.90;;;;;;5010058;28;20037;-64
2022/12/30 09:29:02;;;;;;;11.48;3.15;;;6.30;99.90;;;;;;5002988;28;20029;-67
2022/12/30 09:31:28;;;;;;;13.40;3.60;;;6.30;99.90;;;;;;5008900;28;20045;-66
2022/12/30 09:33:55;;;;;;;11.13;3.42;;;6.40;99.90;;;;;;5009469;28;20078;-65
2022/12/30 09:36:21;;;;;;;13.27;3.05;;;6.40;99.90;;;;;;5000106;28;20443;-67
2022/12/30 09:38:48;;;;;;;12.40;3.28;;;6.50;99.90;;;;;;5009652;28;20476;-66
2022/12/30 09:44:24;;;;;;;9.95;3.05;;;6.60;99.90;;;;;;5008913;28;20813;-64
2022/12/30 09:47:08;;;;;;;8.63;2.78;;;6.60;99.90;;;;;;5001271;28;20043;-65
2022/12/30 09:49:42;;;;;;;8.32;2.78;;;6.70;99.90;;;;;;5016760;28;20076;-65
2022/12/30 09:52:49;;;;;;;13.20;3.10;;;6.70;99.90;;;;;;5020350;28;20041;-65
2022/12/30 09:55:26;;;;;;;11.60;2.80;;;6.80;99.90;;;;;;5006860;28;20795;-65
2022/12/30 09:57:56;;;;;;;8.48;2.70;;;6.80;99.90;;;;;;5012320;28;20060;-66
2022/12/30 10:00:23;;;;;;;8.68;2.83;;;6.80;99.90;;;;;;4992050;28;20472;-66
2022/12/30 10:03:05;;;;;;;14.45;2.95;;;6.90;99.90;;;;;;4991107;28;20049;-67
2022/12/30 10:05:40;;;;;;;7.20;2.53;;;7.00;99.90;;;;;;5010761;28;20033;-67
2022/12/30 10:08:37;;;;;;;9.15;2.83;;;7.00;99.90;;;;;;5004105;28;20037;-66
2022/12/30 10:11:28;;;;;;;6.93;2.67;;;7.00;99.90;;;;;;5008105;28;20084;-69
2022/12/30 10:14:06;;;;;;;7.00;2.47;;;7.10;99.90;;;;;;4994691;28;20112;-67
2022/12/30 10:16:59;;;;;;;8.60;2.72;;;7.10;99.90;;;;;;5014379;28;20052;-65
2022/12/30 10:19:35;;;;;;;15.70;2.35;;;7.20;99.90;;;;;;5005796;28;20046;-69
2022/12/30 10:22:17;;;;;;;11.40;2.83;;;7.30;99.90;;;;;;5010796;28;20038;-69
2022/12/30 10:25:24;;;;;;;7.88;2.78;;;7.40;99.90;;;;;;5011330;28;20103;-69
2022/12/30 10:27:54;;;;;;;7.57;2.35;;;7.40;99.90;;;;;;4993534;28;20042;-67
2022/12/30 10:30:23;;;;;;;7.40;2.47;;;7.40;99.90;;;;;;4991219;28;20045;-68
2022/12/30 10:33:04;;;;;;;9.30;3.00;;;7.50;99.90;;;;;;5015042;28;20175;-67
2022/12/30 10:35:31;;;;;;;9.65;2.78;;;7.50;99.90;;;;;;5026519;28;20042;-68
2022/12/30 10:38:11;;;;;;;9.55;2.58;;;7.60;99.90;;;;;;5001056;28;20084;-64
2022/12/30 10:41:18;;;;;;;9.43;2.78;;;7.70;99.90;;;;;;4983891;28;20062;-67
2022/12/30 10:44:09;;;;;;;12.02;2.80;;;7.70;99.90;;;;;;4961203;28;20046;-68
2022/12/30 10:46:49;;;;;;;8.15;2.53;;;7.70;99.90;;;;;;5012882;28;20124;-68
2022/12/30 10:49:24;;;;;;;9.70;2.95;;;7.80;99.90;;;;;;4994501;28;20128;-68
2022/12/30 10:51:50;;;;;;;8.05;2.55;;;7.80;99.90;;;;;;5005507;28;20045;-67
2022/12/30 10:54:16;;;;;;;12.93;3.28;;;7.80;99.90;;;;;;5005159;28;20038;-68
2022/12/30 10:56:42;;;;;;;9.90;3.42;;;7.80;99.90;;;;;;5013534;28;20381;-67
2022/12/30 10:59:19;;;;;;;7.10;2.78;;;7.80;99.90;;;;;;5013507;28;20160;-68
2022/12/30 11:01:46;;;;;;;9.10;3.03;;;7.80;99.90;;;;;;4998632;28;20089;-67
2022/12/30 11:04:32;;;;;;;7.60;2.97;;;7.90;99.90;;;;;;5001794;28;20421;-67
2022/12/30 11:07:00;;;;;;;8.30;2.67;;;7.90;99.90;;;;;;5004758;28;20096;-67
2022/12/30 11:09:26;;;;;;;8.45;2.28;;;7.90;99.90;;;;;;5008162;28;20041;-67
2022/12/30 11:14:43;;;;;;;7.28;2.50;;;8.00;99.90;;;;;;5001376;28;20050;-67
2022/12/30 11:17:15;;;;;;;5.45;2.38;;;8.10;99.90;;;;;;4994017;28;20042;-66
2022/12/30 11:19:42;;;;;;;9.25;2.97;;;8.10;99.90;;;;;;4990446;28;20053;-68
2022/12/30 11:22:08;;;;;;;6.90;2.60;;;8.20;99.90;;;;;;4992152;28;20042;-66
2022/12/30 11:24:35;;;;;;;9.52;2.67;;;8.30;99.90;;;;;;5006012;28;20045;-69
2022/12/30 11:27:01;;;;;;;9.23;2.70;;;8.30;99.90;;;;;;4992085;28;20046;-67
2022/12/30 11:29:33;;;;;;;6.28;2.40;;;8.30;99.90;;;;;;4985256;28;20041;-66
2022/12/30 11:32:07;;;;;;;8.35;2.30;;;8.40;99.90;;;;;;5002475;28;20484;-67
2022/12/30 11:34:36;;;;;;;7.53;2.58;;;8.50;99.90;;;;;;4997837;28;20050;-67
2022/12/30 11:37:31;;;;;;;9.07;2.90;;;8.50;99.90;;;;;;4994174;28;20042;-68
2022/12/30 11:40:19;;;;;;;8.90;2.63;;;8.50;99.90;;;;;;4980091;28;20435;-68
2022/12/30 11:42:44;;;;;;;7.60;2.30;;;8.50;99.90;;;;;;4998643;28;20606;-66
2022/12/30 11:45:28;;;;;;;7.28;2.42;;;8.50;99.90;;;;;;5005375;28;20038;-66
2022/12/30 11:47:54;;;;;;;5.07;2.10;;;8.50;99.90;;;;;;5031972;28;20033;-68
2022/12/30 11:50:19;;;;;;;6.05;2.55;;;8.50;99.90;;;;;;5018683;28;20065;-70
2022/12/30 11:52:58;;;;;;;7.32;2.53;;;8.50;99.90;;;;;;5007189;28;20044;-69
2022/12/30 11:55:25;;;;;;;5.70;2.22;;;8.60;99.90;;;;;;5014970;28;20042;-69
2022/12/30 11:57:53;;;;;;;5.68;2.20;;;8.60;99.90;;;;;;5022345;28;20042;-68
2022/12/30 12:00:19;;;;;;;8.55;2.30;;;8.60;99.90;;;;;;5004974;28;20124;-68
2022/12/30 12:02:54;;;;;;;6.47;2.45;;;8.70;99.90;;;;;;5015340;28;20180;-66
2022/12/30 12:05:22;;;;;;;5.40;2.00;;;8.70;99.90;;;;;;5018583;28;20110;-66
2022/12/30 12:07:51;;;;;;;4.90;2.03;;;8.70;99.90;;;;;;5022519;28;20168;-69
2022/12/30 12:10:23;;;;;;;6.90;2.38;;;8.70;99.90;;;;;;5011417;28;20069;-67
2022/12/30 12:12:59;;;;;;;5.88;2.30;;;8.70;99.90;;;;;;5011335;28;20413;-67
2022/12/30 12:15:43;;;;;;;7.85;2.10;;;8.70;99.90;;;;;;5006852;28;20156;-68
2022/12/30 12:18:26;;;;;;;8.20;2.17;;;8.70;99.90;;;;;;5000431;28;20128;-67
2022/12/30 12:21:05;;;;;;;6.22;2.42;;;8.70;99.90;;;;;;5009966;28;20029;-66
2022/12/30 12:24:05;;;;;;;7.13;2.83;;;8.70;99.90;;;;;;5009225;28;20073;-71
2022/12/30 12:26:36;;;;;;;5.20;2.20;;;8.70;99.90;;;;;;5009379;28;20053;-68
2022/12/30 12:29:01;;;;;;;6.95;2.35;;;8.70;99.90;;;;;;5002935;28;20052;-68
2022/12/30 12:31:34;;;;;;;5.57;2.15;;;8.70;99.90;;;;;;5005487;28;20038;-68
2022/12/30 12:34:09;;;;;;;6.80;2.30;;;8.70;99.90;;;;;;5001597;28;20579;-68
2022/12/30 12:36:55;;;;;;;9.07;2.60;;;8.80;99.90;;;;;;5010062;28;20447;-68
2022/12/30 12:39:39;;;;;;;6.35;1.95;;;8.80;99.90;;;;;;4994048;28;20050;-68
2022/12/30 12:42:11;;;;;;;7.93;2.20;;;8.80;99.90;;;;;;4984009;28;20172;-68
2022/12/30 12:44:51;;;;;;;;;;;8.80;99.90;;;;;;5011811;28;20113;-68
2022/12/30 12:47:20;;;;;;;6.03;1.97;;;8.80;99.90;;;;;;5012032;28;19921;-70
2022/12/30 12:50:12;;;;;;;6.30;1.83;;;8.90;99.90;;;;;;5002657;28;20038;-67
2022/12/30 12:53:13;;;;;;;7.50;2.08;;;8.90;99.90;;;;;;5005568;28;20041;-68
2022/12/30 12:56:11;;;;;;;7.10;1.90;;;9.00;99.90;;;;;;5011437;28;20049;-68
2022/12/30 12:58:39;;;;;;;7.15;1.80;;;8.90;99.90;;;;;;5011556;28;20419;-68
2022/12/30 13:01:46;;;;;;;4.15;1.70;;;8.90;99.90;;;;;;4983014;28;20042;-68
2022/12/30 13:04:14;;;;;;;3.63;1.55;;;8.90;99.90;;;;;;4939238;29;20039;-68
2022/12/30 13:06:55;;;;;;;6.22;1.80;;;8.90;99.90;;;;;;4924391;29;20441;-68
2022/12/30 13:09:26;;;;;;;7.20;1.65;;;8.90;99.90;;;;;;4967896;28;20042;-67
2022/12/30 13:12:07;;;;;;;4.60;1.65;;;9.00;99.90;;;;;;5002355;28;20129;-68
2022/12/30 13:14:55;;;;;;;5.95;1.70;;;9.00;99.90;;;;;;5015457;28;20125;-70
2022/12/30 13:17:33;;;;;;;8.75;2.05;;;9.00;99.90;;;;;;5012789;28;20496;-68
2022/12/30 13:20:05;;;;;;;6.38;2.10;;;9.00;99.90;;;;;;5007598;28;20236;-68
2022/12/30 13:22:36;;;;;;;5.05;1.70;;;9.00;99.90;;;;;;5011485;28;20049;-68
2022/12/30 13:25:04;;;;;;;;;;;9.00;99.90;;;;;;5011775;28;20087;-68
2022/12/30 13:27:32;;;;;;;6.22;1.70;;;9.00;99.90;;;;;;5002050;28;19928;-69
2022/12/30 13:30:00;;;;;;;2.85;1.58;;;9.00;99.90;;;;;;5014188;28;20435;-68
2022/12/30 13:32:37;;;;;;;5.10;1.60;;;9.10;99.90;;;;;;5010836;28;20044;-68
2022/12/30 13:35:14;;;;;;;4.05;1.60;;;9.10;99.90;;;;;;5007751;28;20037;-68
2022/12/30 13:38:13;;;;;;;7.07;1.98;;;9.10;99.90;;;;;;5003434;28;20042;-68
2022/12/30 13:40:58;;;;;;;5.88;1.63;;;9.10;99.90;;;;;;4999608;28;20034;-68
2022/12/30 13:43:35;;;;;;;3.88;1.60;;;9.10;99.90;;;;;;5002950;28;20451;-68
2022/12/30 13:46:03;;;;;;;5.55;1.90;;;9.10;99.90;;;;;;4998433;28;20069;-68
2022/12/30 13:48:33;;;;;;;5.65;1.98;;;9.10;99.90;;;;;;5003291;28;20088;-69
2022/12/30 13:51:03;;;;;;;7.95;2.00;;;9.10;99.90;;;;;;5017732;28;20057;-69
2022/12/30 13:53:47;;;;;;;5.55;1.80;;;9.10;99.90;;;;;;5016796;28;20080;-68
2022/12/30 13:56:20;;;;;;;7.65;1.85;;;9.20;99.90;;;;;;5026212;28;20045;-69
2022/12/30 13:58:52;;;;;;;4.38;1.55;;;9.30;99.90;;;;;;5002883;28;20042;-68
2022/12/30 14:01:31;;;;;;;6.43;1.75;;;9.40;99.90;;;;;;5010881;28;20044;-68
2022/12/30 14:04:12;;;;;;;8.48;2.15;;;9.50;99.90;;;;;;5034568;28;20175;-68
2022/12/30 14:06:45;;;;;;;3.67;1.58;;;9.50;99.90;;;;;;5008501;28;20046;-69